Airfield :
LOGIN :

Register | Disclaimer

   EN    FR    IT 

 










Legend :    VFR   Marginal VFR   IFR   Intensive IFR   Very Intensive IFR
Visi :
Ceiling :
>= 8 km
>= 3000ft
5 to 8 km
1000 to 3000 ft
1500m to 5 km
500 to 1000 ft
800 to 1500m
200 to 500 ft
< 800m
< 200 ft
Symbols :   Thunderstorms  Fog  Heavy snow  Heavy precipitations  Wind > 20 kt
SIGMETs :     Misc.  Thunderstorms  Icing  Turbulence  Mountain Waves  Volcanic Ashes






- Airport Elevation : 325 ft
- IATA code : BES


LFRB - Brest

CURRENT METAR :
  • 161930Z AUTO 25013KT CAVOK 08/04 Q1010 NOSIG

EXPIRED METARs :
  • 161900Z AUTO 25012KT CAVOK 08/05 Q1010
  • 161830Z AUTO 25012KT CAVOK 08/05 Q1009 TEMPO 25018G28KT 3000 -SHRA SCT014CB
  • 161800Z AUTO 26011KT 230V290 9999 FEW029 BKN140 BKN200 08/06 Q1008 TEMPO 25018G28KT 3000 -SHRA SCT014TCU
  • 161730Z AUTO 26012KT 9999 FEW031/// SCT045/// BKN058/// ///TCU 08/07 Q1008 TEMPO 22018G28KT 3000 -SHRA SCT014CB BKN018
  • 161700Z AUTO 27012KT 240V310 9999 -RA FEW011/// BKN020/// BKN029/// ///TCU 09/08 Q1007 TEMPO 22018G28KT 3000 -SHRA SCT014CB BKN018

TAF AMD TAF LFRB
Valid from the 16 at 18:00 until the 18 at 00:00 UTC


161811Z 1618/1724 26014KT 9999 SCT025 BKN045
PROB30
TEMPO 1618/1620 25018G28KT 3000 -SHRA SCT014CB
TEMPO 1706/1718 4000 SHRA SCT014TCU BKN022
PROB30
TEMPO 1709/1718 26020G34KT 2000 SHGS SCT014CB
ATIS : +33 2 98 32 02 71



MET'MAP, your aeronautical weather chart ! - Copyright ORBIFLY December 2007 - Disclaimer

ORBIFLY MET'MAP TEAM :

Programming & Development : Alexandra Zaïnal
Concept & original design : Baudouin d'Aumeries
Assistance for programming : Marc-Olivier Méhu
Technical & hardware support : Manuel Goepfert

Contact : metmap@orbifly.com




SOURCES & CREDITS :

   NOAA